sensor_id;sensor_type;location;lat;lon;timestamp;P1;durP1;ratioP1;P2;durP2;ratioP2
59728;SDS011;45588;51.598;5.618;2023-11-18T00:01:44;35.03;;;18.02;;
59728;SDS011;45588;51.598;5.618;2023-11-18T00:04:10;36.05;;;18.05;;
59728;SDS011;45588;51.598;5.618;2023-11-18T00:06:40;33.70;;;18.40;;
59728;SDS011;45588;51.598;5.618;2023-11-18T00:09:06;35.88;;;18.27;;
59728;SDS011;45588;51.598;5.618;2023-11-18T00:11:31;35.22;;;18.83;;
59728;SDS011;45588;51.598;5.618;2023-11-18T00:13:56;39.13;;;18.23;;
59728;SDS011;45588;51.598;5.618;2023-11-18T00:16:21;34.22;;;18.40;;
59728;SDS011;45588;51.598;5.618;2023-11-18T00:18:47;39.97;;;18.35;;
59728;SDS011;45588;51.598;5.618;2023-11-18T00:21:13;41.50;;;18.17;;
59728;SDS011;45588;51.598;5.618;2023-11-18T00:23:38;40.10;;;18.05;;
59728;SDS011;45588;51.598;5.618;2023-11-18T00:26:04;37.75;;;17.75;;
59728;SDS011;45588;51.598;5.618;2023-11-18T00:28:32;40.67;;;18.88;;
59728;SDS011;45588;51.598;5.618;2023-11-18T00:30:57;39.80;;;19.88;;
59728;SDS011;45588;51.598;5.618;2023-11-18T00:33:22;35.90;;;18.58;;
59728;SDS011;45588;51.598;5.618;2023-11-18T00:35:47;39.47;;;19.77;;
59728;SDS011;45588;51.598;5.618;2023-11-18T00:38:12;39.33;;;19.75;;
59728;SDS011;45588;51.598;5.618;2023-11-18T00:40:38;39.70;;;19.50;;
59728;SDS011;45588;51.598;5.618;2023-11-18T00:43:03;35.67;;;18.58;;
59728;SDS011;45588;51.598;5.618;2023-11-18T00:45:28;41.83;;;21.42;;
59728;SDS011;45588;51.598;5.618;2023-11-18T00:47:54;38.20;;;19.20;;
59728;SDS011;45588;51.598;5.618;2023-11-18T00:50:19;36.13;;;17.85;;
59728;SDS011;45588;51.598;5.618;2023-11-18T00:52:44;36.97;;;18.98;;
59728;SDS011;45588;51.598;5.618;2023-11-18T00:55:14;39.53;;;21.30;;
59728;SDS011;45588;51.598;5.618;2023-11-18T00:57:39;37.42;;;19.17;;
59728;SDS011;45588;51.598;5.618;2023-11-18T01:00:06;40.38;;;22.33;;
59728;SDS011;45588;51.598;5.618;2023-11-18T01:02:31;41.78;;;21.35;;
59728;SDS011;45588;51.598;5.618;2023-11-18T01:04:57;36.38;;;20.35;;
59728;SDS011;45588;51.598;5.618;2023-11-18T01:07:22;38.95;;;20.40;;
59728;SDS011;45588;51.598;5.618;2023-11-18T01:09:47;39.95;;;22.20;;
59728;SDS011;45588;51.598;5.618;2023-11-18T01:12:13;40.38;;;21.27;;
59728;SDS011;45588;51.598;5.618;2023-11-18T01:14:39;38.53;;;19.95;;
59728;SDS011;45588;51.598;5.618;2023-11-18T01:17:04;36.70;;;19.70;;
59728;SDS011;45588;51.598;5.618;2023-11-18T01:19:30;45.17;;;22.23;;
59728;SDS011;45588;51.598;5.618;2023-11-18T01:21:55;42.55;;;21.52;;
59728;SDS011;45588;51.598;5.618;2023-11-18T01:24:20;39.28;;;20.27;;
59728;SDS011;45588;51.598;5.618;2023-11-18T01:26:46;38.13;;;21.00;;
59728;SDS011;45588;51.598;5.618;2023-11-18T01:29:11;45.17;;;20.90;;
59728;SDS011;45588;51.598;5.618;2023-11-18T01:31:38;36.80;;;19.83;;
59728;SDS011;45588;51.598;5.618;2023-11-18T01:34:06;39.28;;;19.92;;
59728;SDS011;45588;51.598;5.618;2023-11-18T01:36:32;43.80;;;22.27;;
59728;SDS011;45588;51.598;5.618;2023-11-18T01:38:57;45.40;;;25.33;;
59728;SDS011;45588;51.598;5.618;2023-11-18T01:41:22;37.20;;;20.10;;
59728;SDS011;45588;51.598;5.618;2023-11-18T01:43:47;40.70;;;20.50;;
59728;SDS011;45588;51.598;5.618;2023-11-18T01:46:13;38.13;;;19.23;;
59728;SDS011;45588;51.598;5.618;2023-11-18T01:48:38;36.88;;;18.73;;
59728;SDS011;45588;51.598;5.618;2023-11-18T01:51:04;40.00;;;19.83;;
59728;SDS011;45588;51.598;5.618;2023-11-18T01:53:31;37.20;;;19.60;;
59728;SDS011;45588;51.598;5.618;2023-11-18T01:55:56;33.60;;;19.98;;
59728;SDS011;45588;51.598;5.618;2023-11-18T01:58:24;35.60;;;21.00;;
59728;SDS011;45588;51.598;5.618;2023-11-18T02:00:50;39.78;;;21.20;;
59728;SDS011;45588;51.598;5.618;2023-11-18T02:03:19;41.97;;;19.85;;
59728;SDS011;45588;51.598;5.618;2023-11-18T02:05:45;42.63;;;21.80;;
59728;SDS011;45588;51.598;5.618;2023-11-18T02:08:10;37.33;;;20.98;;
59728;SDS011;45588;51.598;5.618;2023-11-18T02:10:44;39.92;;;21.45;;
59728;SDS011;45588;51.598;5.618;2023-11-18T02:13:13;40.22;;;20.27;;
59728;SDS011;45588;51.598;5.618;2023-11-18T02:15:42;43.45;;;21.38;;
59728;SDS011;45588;51.598;5.618;2023-11-18T02:18:08;39.38;;;21.50;;
59728;SDS011;45588;51.598;5.618;2023-11-18T02:20:34;42.17;;;20.92;;
59728;SDS011;45588;51.598;5.618;2023-11-18T02:23:00;41.08;;;20.70;;
59728;SDS011;45588;51.598;5.618;2023-11-18T02:25:26;37.80;;;19.55;;
59728;SDS011;45588;51.598;5.618;2023-11-18T02:27:52;41.75;;;21.30;;
59728;SDS011;45588;51.598;5.618;2023-11-18T02:30:17;44.53;;;22.17;;
59728;SDS011;45588;51.598;5.618;2023-11-18T02:37:35;43.72;;;22.98;;
59728;SDS011;45588;51.598;5.618;2023-11-18T02:40:03;42.05;;;20.95;;
59728;SDS011;45588;51.598;5.618;2023-11-18T02:42:40;43.03;;;21.27;;
59728;SDS011;45588;51.598;5.618;2023-11-18T02:45:06;44.58;;;20.75;;
59728;SDS011;45588;51.598;5.618;2023-11-18T02:47:32;39.08;;;21.77;;
59728;SDS011;45588;51.598;5.618;2023-11-18T02:49:57;39.42;;;21.67;;
59728;SDS011;45588;51.598;5.618;2023-11-18T02:52:27;46.58;;;21.13;;
59728;SDS011;45588;51.598;5.618;2023-11-18T02:54:53;44.65;;;21.73;;
59728;SDS011;45588;51.598;5.618;2023-11-18T02:57:18;39.55;;;19.63;;
59728;SDS011;45588;51.598;5.618;2023-11-18T02:59:43;41.43;;;20.43;;
59728;SDS011;45588;51.598;5.618;2023-11-18T03:02:11;46.17;;;20.70;;
59728;SDS011;45588;51.598;5.618;2023-11-18T03:04:37;52.75;;;21.83;;
59728;SDS011;45588;51.598;5.618;2023-11-18T03:07:02;43.53;;;22.02;;
59728;SDS011;45588;51.598;5.618;2023-11-18T03:09:27;44.33;;;21.63;;
59728;SDS011;45588;51.598;5.618;2023-11-18T03:11:52;41.78;;;21.73;;
59728;SDS011;45588;51.598;5.618;2023-11-18T03:14:18;45.58;;;22.95;;
59728;SDS011;45588;51.598;5.618;2023-11-18T03:16:44;49.03;;;22.83;;
59728;SDS011;45588;51.598;5.618;2023-11-18T03:19:09;44.92;;;22.80;;
59728;SDS011;45588;51.598;5.618;2023-11-18T03:21:34;41.75;;;22.15;;
59728;SDS011;45588;51.598;5.618;2023-11-18T03:24:00;44.75;;;22.80;;
59728;SDS011;45588;51.598;5.618;2023-11-18T03:26:25;40.45;;;22.63;;
59728;SDS011;45588;51.598;5.618;2023-11-18T03:28:51;34.63;;;20.70;;
59728;SDS011;45588;51.598;5.618;2023-11-18T03:31:16;37.42;;;19.05;;
59728;SDS011;45588;51.598;5.618;2023-11-18T03:33:41;36.25;;;19.85;;
59728;SDS011;45588;51.598;5.618;2023-11-18T03:36:07;38.80;;;18.70;;
59728;SDS011;45588;51.598;5.618;2023-11-18T03:38:33;36.70;;;18.40;;
59728;SDS011;45588;51.598;5.618;2023-11-18T03:40:59;45.95;;;20.85;;
59728;SDS011;45588;51.598;5.618;2023-11-18T03:43:24;38.90;;;19.08;;
59728;SDS011;45588;51.598;5.618;2023-11-18T03:45:49;41.22;;;21.02;;
59728;SDS011;45588;51.598;5.618;2023-11-18T03:48:14;45.87;;;23.80;;
59728;SDS011;45588;51.598;5.618;2023-11-18T03:50:40;46.97;;;21.83;;
59728;SDS011;45588;51.598;5.618;2023-11-18T03:53:05;47.80;;;21.38;;
59728;SDS011;45588;51.598;5.618;2023-11-18T03:55:30;49.63;;;23.57;;
59728;SDS011;45588;51.598;5.618;2023-11-18T03:57:55;41.42;;;19.65;;
59728;SDS011;45588;51.598;5.618;2023-11-18T04:00:22;39.22;;;20.33;;
59728;SDS011;45588;51.598;5.618;2023-11-18T04:02:47;45.08;;;22.77;;
59728;SDS011;45588;51.598;5.618;2023-11-18T04:05:12;42.70;;;21.17;;
59728;SDS011;45588;51.598;5.618;2023-11-18T04:07:38;37.67;;;17.42;;
59728;SDS011;45588;51.598;5.618;2023-11-18T04:10:06;35.15;;;18.92;;
59728;SDS011;45588;51.598;5.618;2023-11-18T04:12:34;38.25;;;18.40;;
59728;SDS011;45588;51.598;5.618;2023-11-18T04:14:59;40.42;;;20.70;;
59728;SDS011;45588;51.598;5.618;2023-11-18T04:17:24;35.15;;;19.85;;
59728;SDS011;45588;51.598;5.618;2023-11-18T04:19:53;43.05;;;19.88;;
59728;SDS011;45588;51.598;5.618;2023-11-18T04:22:20;41.80;;;18.67;;
59728;SDS011;45588;51.598;5.618;2023-11-18T04:24:46;45.30;;;19.83;;
59728;SDS011;45588;51.598;5.618;2023-11-18T04:27:12;38.73;;;19.20;;
59728;SDS011;45588;51.598;5.618;2023-11-18T04:29:37;41.40;;;20.63;;
59728;SDS011;45588;51.598;5.618;2023-11-18T04:32:03;41.60;;;21.80;;
59728;SDS011;45588;51.598;5.618;2023-11-18T04:34:28;39.08;;;20.48;;
59728;SDS011;45588;51.598;5.618;2023-11-18T04:36:53;45.87;;;20.40;;
59728;SDS011;45588;51.598;5.618;2023-11-18T04:39:18;46.30;;;22.40;;
59728;SDS011;45588;51.598;5.618;2023-11-18T04:41:45;37.72;;;19.92;;
59728;SDS011;45588;51.598;5.618;2023-11-18T04:44:11;45.40;;;23.02;;
59728;SDS011;45588;51.598;5.618;2023-11-18T04:46:36;39.90;;;19.02;;
59728;SDS011;45588;51.598;5.618;2023-11-18T04:49:01;38.88;;;20.52;;
59728;SDS011;45588;51.598;5.618;2023-11-18T04:51:27;38.05;;;20.70;;
59728;SDS011;45588;51.598;5.618;2023-11-18T04:53:52;40.15;;;19.70;;
59728;SDS011;45588;51.598;5.618;2023-11-18T04:56:17;38.83;;;20.05;;
59728;SDS011;45588;51.598;5.618;2023-11-18T04:58:43;37.40;;;20.63;;
59728;SDS011;45588;51.598;5.618;2023-11-18T05:01:11;43.63;;;22.27;;
59728;SDS011;45588;51.598;5.618;2023-11-18T05:03:37;47.63;;;23.00;;
59728;SDS011;45588;51.598;5.618;2023-11-18T05:06:03;43.65;;;23.52;;
59728;SDS011;45588;51.598;5.618;2023-11-18T05:08:29;40.72;;;21.17;;
59728;SDS011;45588;51.598;5.618;2023-11-18T05:10:54;44.67;;;23.95;;
59728;SDS011;45588;51.598;5.618;2023-11-18T05:13:20;42.00;;;21.63;;
59728;SDS011;45588;51.598;5.618;2023-11-18T05:15:45;42.13;;;20.58;;
59728;SDS011;45588;51.598;5.618;2023-11-18T05:18:11;45.97;;;20.98;;
59728;SDS011;45588;51.598;5.618;2023-11-18T05:20:39;41.60;;;21.55;;
59728;SDS011;45588;51.598;5.618;2023-11-18T05:23:04;37.58;;;20.02;;
59728;SDS011;45588;51.598;5.618;2023-11-18T05:25:29;41.60;;;22.85;;
59728;SDS011;45588;51.598;5.618;2023-11-18T05:27:55;46.38;;;22.67;;
59728;SDS011;45588;51.598;5.618;2023-11-18T05:30:20;40.85;;;20.33;;
59728;SDS011;45588;51.598;5.618;2023-11-18T05:32:45;48.95;;;21.33;;
59728;SDS011;45588;51.598;5.618;2023-11-18T05:35:10;46.63;;;22.47;;
59728;SDS011;45588;51.598;5.618;2023-11-18T05:37:36;42.25;;;22.42;;
59728;SDS011;45588;51.598;5.618;2023-11-18T05:40:03;38.38;;;19.67;;
59728;SDS011;45588;51.598;5.618;2023-11-18T05:42:35;35.90;;;18.05;;
59728;SDS011;45588;51.598;5.618;2023-11-18T05:45:06;36.72;;;18.13;;
59728;SDS011;45588;51.598;5.618;2023-11-18T05:47:32;36.38;;;18.63;;
59728;SDS011;45588;51.598;5.618;2023-11-18T05:49:57;40.25;;;18.65;;
59728;SDS011;45588;51.598;5.618;2023-11-18T05:52:22;34.97;;;18.90;;
59728;SDS011;45588;51.598;5.618;2023-11-18T05:54:48;35.20;;;18.17;;
59728;SDS011;45588;51.598;5.618;2023-11-18T05:57:16;32.88;;;19.38;;
59728;SDS011;45588;51.598;5.618;2023-11-18T05:59:41;32.70;;;19.52;;
59728;SDS011;45588;51.598;5.618;2023-11-18T06:02:07;40.92;;;18.48;;
59728;SDS011;45588;51.598;5.618;2023-11-18T06:04:33;40.38;;;18.80;;
59728;SDS011;45588;51.598;5.618;2023-11-18T06:06:58;33.38;;;17.48;;
59728;SDS011;45588;51.598;5.618;2023-11-18T06:09:23;37.33;;;17.43;;
59728;SDS011;45588;51.598;5.618;2023-11-18T06:11:50;38.22;;;19.05;;
59728;SDS011;45588;51.598;5.618;2023-11-18T06:14:16;39.50;;;21.08;;
59728;SDS011;45588;51.598;5.618;2023-11-18T06:16:41;29.83;;;17.35;;
59728;SDS011;45588;51.598;5.618;2023-11-18T06:19:07;28.00;;;17.15;;
59728;SDS011;45588;51.598;5.618;2023-11-18T06:21:32;37.97;;;18.88;;
59728;SDS011;45588;51.598;5.618;2023-11-18T06:23:58;29.52;;;16.95;;
59728;SDS011;45588;51.598;5.618;2023-11-18T06:26:24;27.00;;;16.08;;
59728;SDS011;45588;51.598;5.618;2023-11-18T06:28:51;32.53;;;19.00;;
59728;SDS011;45588;51.598;5.618;2023-11-18T06:31:16;31.90;;;17.70;;
59728;SDS011;45588;51.598;5.618;2023-11-18T06:33:42;37.58;;;18.38;;
59728;SDS011;45588;51.598;5.618;2023-11-18T06:36:08;27.73;;;16.58;;
59728;SDS011;45588;51.598;5.618;2023-11-18T06:38:34;27.95;;;17.40;;
59728;SDS011;45588;51.598;5.618;2023-11-18T06:41:00;34.47;;;18.77;;
59728;SDS011;45588;51.598;5.618;2023-11-18T06:43:27;26.95;;;18.05;;
59728;SDS011;45588;51.598;5.618;2023-11-18T06:46:00;35.83;;;18.80;;
59728;SDS011;45588;51.598;5.618;2023-11-18T06:48:26;33.75;;;17.58;;
59728;SDS011;45588;51.598;5.618;2023-11-18T06:50:51;32.73;;;17.90;;
59728;SDS011;45588;51.598;5.618;2023-11-18T06:53:16;31.42;;;17.15;;
59728;SDS011;45588;51.598;5.618;2023-11-18T06:55:41;26.10;;;16.48;;
59728;SDS011;45588;51.598;5.618;2023-11-18T06:58:08;30.85;;;18.27;;
59728;SDS011;45588;51.598;5.618;2023-11-18T07:00:35;33.33;;;18.30;;
59728;SDS011;45588;51.598;5.618;2023-11-18T07:03:00;28.83;;;15.63;;
59728;SDS011;45588;51.598;5.618;2023-11-18T07:05:26;26.92;;;16.65;;
59728;SDS011;45588;51.598;5.618;2023-11-18T07:07:51;29.40;;;16.02;;
59728;SDS011;45588;51.598;5.618;2023-11-18T07:10:16;28.17;;;15.82;;
59728;SDS011;45588;51.598;5.618;2023-11-18T07:12:45;26.80;;;14.48;;
59728;SDS011;45588;51.598;5.618;2023-11-18T07:15:10;26.67;;;13.88;;
59728;SDS011;45588;51.598;5.618;2023-11-18T07:17:36;28.25;;;13.52;;
59728;SDS011;45588;51.598;5.618;2023-11-18T07:20:01;28.75;;;13.88;;
59728;SDS011;45588;51.598;5.618;2023-11-18T07:22:26;25.80;;;13.05;;
59728;SDS011;45588;51.598;5.618;2023-11-18T07:24:52;20.20;;;12.60;;
59728;SDS011;45588;51.598;5.618;2023-11-18T07:27:17;24.58;;;13.85;;
59728;SDS011;45588;51.598;5.618;2023-11-18T07:29:42;26.52;;;15.02;;
59728;SDS011;45588;51.598;5.618;2023-11-18T07:32:10;24.08;;;12.55;;
59728;SDS011;45588;51.598;5.618;2023-11-18T07:34:35;26.70;;;13.18;;
59728;SDS011;45588;51.598;5.618;2023-11-18T07:37:01;23.95;;;13.30;;
59728;SDS011;45588;51.598;5.618;2023-11-18T07:39:27;29.40;;;13.35;;
59728;SDS011;45588;51.598;5.618;2023-11-18T07:42:08;27.20;;;13.18;;
59728;SDS011;45588;51.598;5.618;2023-11-18T07:44:33;27.08;;;13.55;;
59728;SDS011;45588;51.598;5.618;2023-11-18T07:46:59;25.60;;;12.40;;
59728;SDS011;45588;51.598;5.618;2023-11-18T07:49:24;17.52;;;11.18;;
59728;SDS011;45588;51.598;5.618;2023-11-18T07:51:51;25.52;;;12.57;;
59728;SDS011;45588;51.598;5.618;2023-11-18T07:54:16;27.35;;;13.00;;
59728;SDS011;45588;51.598;5.618;2023-11-18T07:56:43;23.45;;;11.75;;
59728;SDS011;45588;51.598;5.618;2023-11-18T07:59:11;22.73;;;13.20;;
59728;SDS011;45588;51.598;5.618;2023-11-18T08:01:41;19.17;;;10.10;;
59728;SDS011;45588;51.598;5.618;2023-11-18T08:04:09;23.80;;;11.27;;
59728;SDS011;45588;51.598;5.618;2023-11-18T08:06:34;26.60;;;13.57;;
59728;SDS011;45588;51.598;5.618;2023-11-18T08:08:59;20.33;;;10.90;;
59728;SDS011;45588;51.598;5.618;2023-11-18T08:11:24;17.27;;;10.57;;
59728;SDS011;45588;51.598;5.618;2023-11-18T08:13:50;18.67;;;10.63;;
59728;SDS011;45588;51.598;5.618;2023-11-18T08:16:15;19.48;;;10.73;;
59728;SDS011;45588;51.598;5.618;2023-11-18T08:18:41;19.80;;;10.98;;
59728;SDS011;45588;51.598;5.618;2023-11-18T08:21:06;24.23;;;11.55;;
59728;SDS011;45588;51.598;5.618;2023-11-18T08:23:32;18.67;;;10.60;;
59728;SDS011;45588;51.598;5.618;2023-11-18T08:25:57;20.35;;;10.43;;
59728;SDS011;45588;51.598;5.618;2023-11-18T08:28:23;22.83;;;10.35;;
59728;SDS011;45588;51.598;5.618;2023-11-18T08:30:49;25.90;;;13.85;;
59728;SDS011;45588;51.598;5.618;2023-11-18T08:33:16;17.17;;;9.43;;
59728;SDS011;45588;51.598;5.618;2023-11-18T08:35:41;18.92;;;9.60;;
59728;SDS011;45588;51.598;5.618;2023-11-18T08:38:07;19.65;;;9.48;;
59728;SDS011;45588;51.598;5.618;2023-11-18T08:40:32;21.67;;;10.88;;
59728;SDS011;45588;51.598;5.618;2023-11-18T08:42:57;19.73;;;10.02;;
59728;SDS011;45588;51.598;5.618;2023-11-18T08:45:23;19.20;;;9.10;;
59728;SDS011;45588;51.598;5.618;2023-11-18T08:47:54;18.00;;;11.15;;
59728;SDS011;45588;51.598;5.618;2023-11-18T08:50:20;22.55;;;10.25;;
59728;SDS011;45588;51.598;5.618;2023-11-18T08:52:48;19.70;;;10.13;;
59728;SDS011;45588;51.598;5.618;2023-11-18T08:55:14;21.02;;;10.18;;
59728;SDS011;45588;51.598;5.618;2023-11-18T08:57:45;18.92;;;9.80;;
59728;SDS011;45588;51.598;5.618;2023-11-18T09:00:26;17.77;;;9.70;;
59728;SDS011;45588;51.598;5.618;2023-11-18T09:03:18;23.23;;;8.73;;
59728;SDS011;45588;51.598;5.618;2023-11-18T09:05:54;21.15;;;9.25;;
59728;SDS011;45588;51.598;5.618;2023-11-18T09:08:23;27.13;;;10.60;;
59728;SDS011;45588;51.598;5.618;2023-11-18T09:10:49;20.55;;;9.32;;
59728;SDS011;45588;51.598;5.618;2023-11-18T09:13:14;16.80;;;10.38;;
59728;SDS011;45588;51.598;5.618;2023-11-18T09:15:39;19.75;;;8.60;;
59728;SDS011;45588;51.598;5.618;2023-11-18T09:18:05;12.98;;;7.78;;
59728;SDS011;45588;51.598;5.618;2023-11-18T09:20:34;20.73;;;8.82;;
59728;SDS011;45588;51.598;5.618;2023-11-18T09:23:01;17.45;;;7.88;;
59728;SDS011;45588;51.598;5.618;2023-11-18T09:25:26;15.57;;;8.50;;
59728;SDS011;45588;51.598;5.618;2023-11-18T09:27:52;13.98;;;8.45;;
59728;SDS011;45588;51.598;5.618;2023-11-18T09:30:17;19.77;;;7.03;;
59728;SDS011;45588;51.598;5.618;2023-11-18T09:32:42;10.52;;;6.95;;
59728;SDS011;45588;51.598;5.618;2023-11-18T09:35:08;17.88;;;7.90;;
59728;SDS011;45588;51.598;5.618;2023-11-18T09:37:34;19.23;;;7.25;;
59728;SDS011;45588;51.598;5.618;2023-11-18T09:40:00;9.95;;;6.47;;
59728;SDS011;45588;51.598;5.618;2023-11-18T09:42:36;13.05;;;6.72;;
59728;SDS011;45588;51.598;5.618;2023-11-18T09:45:02;16.00;;;7.95;;
59728;SDS011;45588;51.598;5.618;2023-11-18T09:47:30;15.88;;;6.68;;
59728;SDS011;45588;51.598;5.618;2023-11-18T09:49:57;11.18;;;6.78;;
59728;SDS011;45588;51.598;5.618;2023-11-18T09:52:26;17.52;;;7.63;;
59728;SDS011;45588;51.598;5.618;2023-11-18T09:55:01;10.13;;;5.90;;
59728;SDS011;45588;51.598;5.618;2023-11-18T09:57:31;12.70;;;6.55;;
59728;SDS011;45588;51.598;5.618;2023-11-18T10:00:06;14.65;;;6.28;;
59728;SDS011;45588;51.598;5.618;2023-11-18T10:02:50;16.73;;;6.30;;
59728;SDS011;45588;51.598;5.618;2023-11-18T10:05:16;14.35;;;6.35;;
59728;SDS011;45588;51.598;5.618;2023-11-18T10:07:45;9.27;;;5.47;;
59728;SDS011;45588;51.598;5.618;2023-11-18T10:10:12;14.65;;;6.78;;
59728;SDS011;45588;51.598;5.618;2023-11-18T10:12:43;10.98;;;6.20;;
59728;SDS011;45588;51.598;5.618;2023-11-18T10:15:10;14.93;;;6.00;;
59728;SDS011;45588;51.598;5.618;2023-11-18T10:17:38;10.73;;;6.00;;
59728;SDS011;45588;51.598;5.618;2023-11-18T10:20:10;8.25;;;6.45;;
59728;SDS011;45588;51.598;5.618;2023-11-18T10:22:41;11.98;;;7.30;;
59728;SDS011;45588;51.598;5.618;2023-11-18T10:25:06;13.48;;;6.65;;
59728;SDS011;45588;51.598;5.618;2023-11-18T10:27:31;13.90;;;6.30;;
59728;SDS011;45588;51.598;5.618;2023-11-18T10:30:04;8.95;;;4.45;;
59728;SDS011;45588;51.598;5.618;2023-11-18T10:32:32;15.75;;;6.72;;
59728;SDS011;45588;51.598;5.618;2023-11-18T10:35:00;8.07;;;6.13;;
59728;SDS011;45588;51.598;5.618;2023-11-18T10:37:26;11.05;;;5.75;;
59728;SDS011;45588;51.598;5.618;2023-11-18T10:39:55;14.02;;;5.50;;
59728;SDS011;45588;51.598;5.618;2023-11-18T10:42:22;13.20;;;6.90;;
59728;SDS011;45588;51.598;5.618;2023-11-18T10:45:05;11.60;;;5.70;;
59728;SDS011;45588;51.598;5.618;2023-11-18T10:47:34;9.32;;;5.57;;
59728;SDS011;45588;51.598;5.618;2023-11-18T10:50:00;7.80;;;4.90;;
59728;SDS011;45588;51.598;5.618;2023-11-18T10:52:26;11.25;;;4.78;;
59728;SDS011;45588;51.598;5.618;2023-11-18T10:54:55;11.93;;;5.15;;
59728;SDS011;45588;51.598;5.618;2023-11-18T10:57:21;13.10;;;4.50;;
59728;SDS011;45588;51.598;5.618;2023-11-18T10:59:58;6.82;;;3.95;;
59728;SDS011;45588;51.598;5.618;2023-11-18T11:02:24;12.02;;;5.70;;
59728;SDS011;45588;51.598;5.618;2023-11-18T11:04:49;9.27;;;4.77;;
59728;SDS011;45588;51.598;5.618;2023-11-18T11:07:14;9.60;;;5.55;;
59728;SDS011;45588;51.598;5.618;2023-11-18T11:09:40;13.45;;;5.50;;
59728;SDS011;45588;51.598;5.618;2023-11-18T11:12:09;8.90;;;4.88;;
59728;SDS011;45588;51.598;5.618;2023-11-18T11:14:41;9.85;;;4.75;;
59728;SDS011;45588;51.598;5.618;2023-11-18T11:17:12;12.95;;;6.93;;
59728;SDS011;45588;51.598;5.618;2023-11-18T11:19:44;12.98;;;5.25;;
59728;SDS011;45588;51.598;5.618;2023-11-18T11:22:13;13.55;;;5.13;;
59728;SDS011;45588;51.598;5.618;2023-11-18T11:24:45;14.32;;;4.60;;
59728;SDS011;45588;51.598;5.618;2023-11-18T11:29:44;8.07;;;4.03;;
59728;SDS011;45588;51.598;5.618;2023-11-18T11:32:25;12.95;;;4.70;;
59728;SDS011;45588;51.598;5.618;2023-11-18T11:34:53;5.80;;;4.20;;
59728;SDS011;45588;51.598;5.618;2023-11-18T11:37:19;7.30;;;4.97;;
59728;SDS011;45588;51.598;5.618;2023-11-18T11:39:44;10.65;;;4.00;;
59728;SDS011;45588;51.598;5.618;2023-11-18T11:42:12;12.32;;;4.43;;
59728;SDS011;45588;51.598;5.618;2023-11-18T11:44:39;12.80;;;5.20;;
59728;SDS011;45588;51.598;5.618;2023-11-18T11:47:07;7.28;;;4.93;;
59728;SDS011;45588;51.598;5.618;2023-11-18T11:49:41;12.25;;;5.78;;
59728;SDS011;45588;51.598;5.618;2023-11-18T11:54:52;7.35;;;4.68;;
59728;SDS011;45588;51.598;5.618;2023-11-18T11:57:21;10.13;;;5.55;;
59728;SDS011;45588;51.598;5.618;2023-11-18T11:59:54;15.07;;;4.88;;
59728;SDS011;45588;51.598;5.618;2023-11-18T12:02:21;10.48;;;4.85;;
59728;SDS011;45588;51.598;5.618;2023-11-18T12:04:50;11.80;;;5.97;;
59728;SDS011;45588;51.598;5.618;2023-11-18T12:07:22;6.93;;;3.92;;
59728;SDS011;45588;51.598;5.618;2023-11-18T12:09:58;12.73;;;5.38;;
59728;SDS011;45588;51.598;5.618;2023-11-18T12:12:24;10.05;;;5.55;;
59728;SDS011;45588;51.598;5.618;2023-11-18T12:14:52;14.68;;;4.63;;
59728;SDS011;45588;51.598;5.618;2023-11-18T12:17:17;10.27;;;4.78;;
59728;SDS011;45588;51.598;5.618;2023-11-18T12:19:49;7.93;;;4.75;;
59728;SDS011;45588;51.598;5.618;2023-11-18T12:22:19;8.00;;;4.47;;
59728;SDS011;45588;51.598;5.618;2023-11-18T12:25:28;6.75;;;4.22;;
59728;SDS011;45588;51.598;5.618;2023-11-18T12:33:01;8.23;;;4.47;;
59728;SDS011;45588;51.598;5.618;2023-11-18T12:35:32;9.50;;;4.00;;
59728;SDS011;45588;51.598;5.618;2023-11-18T12:43:15;12.57;;;4.15;;
59728;SDS011;45588;51.598;5.618;2023-11-18T12:48:44;9.60;;;4.65;;
59728;SDS011;45588;51.598;5.618;2023-11-18T12:51:11;13.80;;;4.97;;
59728;SDS011;45588;51.598;5.618;2023-11-18T12:53:44;10.48;;;4.60;;
59728;SDS011;45588;51.598;5.618;2023-11-18T12:56:10;8.13;;;3.95;;
59728;SDS011;45588;51.598;5.618;2023-11-18T12:58:38;10.30;;;4.40;;
59728;SDS011;45588;51.598;5.618;2023-11-18T13:01:04;12.02;;;4.47;;
59728;SDS011;45588;51.598;5.618;2023-11-18T13:03:29;6.70;;;3.83;;
59728;SDS011;45588;51.598;5.618;2023-11-18T13:05:54;15.97;;;4.23;;
59728;SDS011;45588;51.598;5.618;2023-11-18T13:08:21;5.22;;;2.58;;
59728;SDS011;45588;51.598;5.618;2023-11-18T13:10:47;9.07;;;4.20;;
59728;SDS011;45588;51.598;5.618;2023-11-18T13:13:13;4.43;;;2.80;;
59728;SDS011;45588;51.598;5.618;2023-11-18T13:15:42;6.45;;;3.67;;
59728;SDS011;45588;51.598;5.618;2023-11-18T13:18:07;8.35;;;3.03;;
59728;SDS011;45588;51.598;5.618;2023-11-18T13:20:34;5.07;;;3.00;;
59728;SDS011;45588;51.598;5.618;2023-11-18T13:23:02;3.85;;;2.67;;
59728;SDS011;45588;51.598;5.618;2023-11-18T13:25:33;7.47;;;3.40;;
59728;SDS011;45588;51.598;5.618;2023-11-18T13:27:59;3.80;;;2.83;;
59728;SDS011;45588;51.598;5.618;2023-11-18T13:30:24;5.75;;;3.08;;
59728;SDS011;45588;51.598;5.618;2023-11-18T13:32:49;6.70;;;3.08;;
59728;SDS011;45588;51.598;5.618;2023-11-18T13:35:14;5.60;;;3.33;;
59728;SDS011;45588;51.598;5.618;2023-11-18T13:37:45;9.43;;;3.00;;
59728;SDS011;45588;51.598;5.618;2023-11-18T13:40:11;9.77;;;3.78;;
59728;SDS011;45588;51.598;5.618;2023-11-18T13:42:38;4.45;;;3.05;;
59728;SDS011;45588;51.598;5.618;2023-11-18T13:45:05;5.40;;;2.97;;
59728;SDS011;45588;51.598;5.618;2023-11-18T13:47:33;5.60;;;3.05;;
59728;SDS011;45588;51.598;5.618;2023-11-18T13:49:58;5.13;;;2.47;;
59728;SDS011;45588;51.598;5.618;2023-11-18T13:52:23;6.90;;;3.10;;
59728;SDS011;45588;51.598;5.618;2023-11-18T13:54:50;4.88;;;2.80;;
59728;SDS011;45588;51.598;5.618;2023-11-18T13:57:20;6.55;;;3.63;;
59728;SDS011;45588;51.598;5.618;2023-11-18T13:59:47;9.52;;;3.70;;
59728;SDS011;45588;51.598;5.618;2023-11-18T14:02:14;4.95;;;3.35;;
59728;SDS011;45588;51.598;5.618;2023-11-18T14:04:41;4.60;;;3.47;;
59728;SDS011;45588;51.598;5.618;2023-11-18T14:07:08;3.53;;;3.22;;
59728;SDS011;45588;51.598;5.618;2023-11-18T14:09:34;3.92;;;3.13;;
59728;SDS011;45588;51.598;5.618;2023-11-18T14:12:06;7.28;;;3.38;;
59728;SDS011;45588;51.598;5.618;2023-11-18T14:14:31;6.38;;;2.58;;
59728;SDS011;45588;51.598;5.618;2023-11-18T14:16:57;3.95;;;2.90;;
59728;SDS011;45588;51.598;5.618;2023-11-18T14:19:23;4.68;;;4.10;;
59728;SDS011;45588;51.598;5.618;2023-11-18T14:21:52;3.22;;;2.83;;
59728;SDS011;45588;51.598;5.618;2023-11-18T14:24:18;7.22;;;2.67;;
59728;SDS011;45588;51.598;5.618;2023-11-18T14:26:43;3.03;;;2.40;;
59728;SDS011;45588;51.598;5.618;2023-11-18T14:29:08;4.95;;;3.22;;
59728;SDS011;45588;51.598;5.618;2023-11-18T14:31:34;3.78;;;3.00;;
59728;SDS011;45588;51.598;5.618;2023-11-18T14:33:59;5.75;;;3.50;;
59728;SDS011;45588;51.598;5.618;2023-11-18T14:36:28;3.97;;;2.58;;
59728;SDS011;45588;51.598;5.618;2023-11-18T14:38:53;3.10;;;2.67;;
59728;SDS011;45588;51.598;5.618;2023-11-18T14:41:18;7.00;;;3.20;;
59728;SDS011;45588;51.598;5.618;2023-11-18T14:43:45;4.13;;;2.88;;
59728;SDS011;45588;51.598;5.618;2023-11-18T14:46:10;3.35;;;2.92;;
59728;SDS011;45588;51.598;5.618;2023-11-18T14:48:35;6.00;;;3.40;;
59728;SDS011;45588;51.598;5.618;2023-11-18T14:51:01;2.78;;;2.58;;